createdAt,value
2019-01-29T11:51:06.016Z,37.20
2019-01-29T11:52:05.566Z,35.70
2019-01-29T11:53:05.573Z,35.60
2019-01-29T11:54:05.578Z,31.90
2019-01-29T11:55:05.637Z,32.60
2019-01-29T11:56:05.585Z,36.20
2019-01-29T11:57:05.600Z,32.30
2019-01-29T11:58:05.607Z,33.70
2019-01-29T11:59:05.633Z,33.20
2019-01-29T12:00:05.627Z,32.80
2019-01-29T12:01:05.617Z,32.30
2019-01-29T12:02:05.635Z,35.50
2019-01-29T12:03:05.641Z,31.00
2019-01-29T12:04:05.641Z,36.90
2019-01-29T12:05:05.645Z,34.70
2019-01-29T12:06:05.667Z,33.90
2019-01-29T12:07:05.739Z,33.10
2019-01-29T12:08:05.691Z,28.10
2019-01-29T12:09:05.676Z,29.50
2019-01-29T12:10:05.681Z,30.10
2019-01-29T12:11:05.705Z,30.60
2019-01-29T12:12:05.709Z,30.60
2019-01-29T12:13:05.717Z,35.60
2019-01-29T12:14:05.708Z,31.60
2019-01-29T12:15:05.735Z,30.80
2019-01-29T12:16:05.740Z,33.00
2019-01-29T12:17:05.741Z,32.60
2019-01-29T12:18:05.769Z,31.20
2019-01-29T12:19:05.865Z,29.90
2019-01-29T12:20:05.773Z,28.30
2019-01-29T12:21:05.822Z,29.30
2019-01-29T12:22:05.766Z,34.80
2019-01-29T12:23:05.773Z,31.30
2019-01-29T12:24:05.789Z,28.50
2019-01-29T12:25:05.803Z,29.80
2019-01-29T12:26:13.073Z,29.30
2019-01-29T12:27:05.818Z,28.40
2019-01-29T12:28:05.825Z,27.80
2019-01-29T12:29:05.833Z,23.40
2019-01-29T12:30:05.841Z,24.80
2019-01-29T12:31:05.864Z,26.50
2019-01-29T12:32:05.855Z,26.10
2019-01-29T12:33:05.860Z,25.80
2019-01-29T12:34:05.877Z,26.80
2019-01-29T12:35:05.877Z,27.70
2019-01-29T12:36:05.890Z,25.60
2019-01-29T12:37:05.949Z,31.90
2019-01-29T12:38:05.923Z,27.70
2019-01-29T12:39:05.904Z,26.90
2019-01-29T12:40:06.036Z,24.50
2019-01-29T12:41:05.917Z,27.50
2019-01-29T12:42:05.929Z,26.10
2019-01-29T12:43:05.939Z,27.20
2019-01-29T12:44:05.919Z,30.10
2019-01-29T12:45:05.943Z,25.10
2019-01-29T12:46:05.943Z,27.90
2019-01-29T12:47:05.962Z,28.70
2019-01-29T12:48:05.973Z,27.10
2019-01-29T12:49:05.971Z,27.20
2019-01-29T12:50:06.018Z,27.30
2019-01-29T12:51:05.986Z,27.70
2019-01-29T12:52:06.004Z,29.00
2019-01-29T12:53:06.001Z,26.90
2019-01-29T12:54:06.012Z,27.00
2019-01-29T12:55:06.071Z,23.10
2019-01-29T12:56:06.022Z,26.40
2019-01-29T12:57:06.064Z,21.50
2019-01-29T12:58:06.026Z,24.50
2019-01-29T12:59:06.048Z,24.80
2019-01-29T13:00:06.045Z,24.80
2019-01-29T13:01:06.041Z,24.40
2019-01-29T13:02:06.078Z,23.00
2019-01-29T13:03:06.117Z,24.50
2019-01-29T13:04:06.092Z,22.00
2019-01-29T13:05:06.078Z,25.10
2019-01-29T13:06:06.088Z,19.90
2019-01-29T13:07:06.091Z,23.50
2019-01-29T13:08:06.097Z,22.30
2019-01-29T13:09:06.241Z,21.70
2019-01-29T13:10:06.122Z,22.90
2019-01-29T13:11:06.124Z,25.40
2019-01-29T13:12:06.125Z,25.20
2019-01-29T13:13:06.134Z,26.60
2019-01-29T13:14:06.135Z,20.90
2019-01-29T13:15:06.138Z,23.40
2019-01-29T13:16:06.158Z,23.20
2019-01-29T13:17:06.196Z,19.70
2019-01-29T13:18:06.161Z,21.20
2019-01-29T13:19:06.188Z,24.70
2019-01-29T13:20:06.162Z,24.90
2019-01-29T13:21:06.176Z,23.50
2019-01-29T13:22:06.177Z,22.30
2019-01-29T13:23:06.190Z,23.90
2019-01-29T13:24:06.193Z,20.80
2019-01-29T13:25:06.196Z,23.80
2019-01-29T13:26:06.204Z,25.80
2019-01-29T13:27:06.222Z,25.20
2019-01-29T13:28:06.214Z,19.30
2019-01-29T13:29:06.225Z,20.30
2019-01-29T13:30:06.231Z,21.50
2019-01-29T13:31:06.247Z,17.90
2019-01-29T13:32:06.236Z,21.90
2019-01-29T13:33:06.241Z,18.00
2019-01-29T13:34:06.251Z,20.70
2019-01-29T13:35:06.257Z,23.30
2019-01-29T13:36:06.257Z,24.20
2019-01-29T13:37:06.260Z,17.80
2019-01-29T13:38:06.271Z,21.10
2019-01-29T13:39:06.265Z,22.50
2019-01-29T13:40:06.269Z,18.90
2019-01-29T13:41:06.280Z,18.40
2019-01-29T13:42:06.284Z,16.60
2019-01-29T13:44:06.286Z,16.50
2019-01-29T13:45:06.289Z,15.60
2019-01-29T13:46:06.297Z,17.80
2019-01-29T13:47:06.301Z,20.10
2019-01-29T13:48:06.320Z,16.90
2019-01-29T13:49:06.312Z,18.40
2019-01-29T13:50:06.314Z,13.60
2019-01-29T13:51:06.319Z,14.60
2019-01-29T13:52:06.332Z,14.80
2019-01-29T13:53:06.326Z,13.40
2019-01-29T13:54:06.327Z,13.60
2019-01-29T13:55:06.354Z,17.80
2019-01-29T13:56:06.339Z,18.50
2019-01-29T13:57:06.368Z,17.70
2019-01-29T13:58:06.364Z,12.10
2019-01-29T13:59:06.349Z,13.10
2019-01-29T14:00:06.370Z,13.00
2019-01-29T14:01:06.404Z,13.60
2019-01-29T14:02:06.422Z,13.40
2019-01-29T14:03:06.382Z,13.80
2019-01-29T14:04:06.650Z,12.50
2019-01-29T14:05:06.407Z,12.00
2019-01-29T14:06:06.412Z,13.90
2019-01-29T14:07:06.408Z,11.50
2019-01-29T14:08:06.432Z,11.40
2019-01-29T14:09:06.482Z,10.20
2019-01-29T14:10:06.465Z,11.00
2019-01-29T14:11:06.448Z,11.70
2019-01-29T14:12:06.434Z,10.30
2019-01-29T14:13:06.490Z,10.00
2019-01-29T14:14:06.467Z,10.80
2019-01-29T14:15:06.467Z,13.10
2019-01-29T14:16:06.469Z,13.00
2019-01-29T14:17:06.475Z,11.70
2019-01-29T14:18:06.513Z,13.30
2019-01-29T14:19:06.560Z,8.60
2019-01-29T14:20:06.511Z,13.40
2019-01-29T14:21:06.506Z,12.10
2019-01-29T14:22:06.539Z,11.80
2019-01-29T14:23:06.586Z,13.90
2019-01-29T14:24:06.589Z,11.00
2019-01-29T14:25:06.597Z,12.50
2019-01-29T14:26:06.521Z,11.40
2019-01-29T14:27:06.540Z,11.30
2019-01-29T14:28:06.566Z,13.30
2019-01-29T14:29:06.559Z,10.70
2019-01-29T14:30:06.579Z,11.70
2019-01-29T14:31:06.565Z,9.10
2019-01-29T14:32:06.558Z,10.70
2019-01-29T14:33:06.581Z,11.10
2019-01-29T14:34:06.586Z,16.30
2019-01-29T14:35:06.597Z,11.60
2019-01-29T14:36:06.591Z,10.20
2019-01-29T14:37:06.598Z,11.00
2019-01-29T14:38:06.604Z,12.70
2019-01-29T14:39:06.594Z,9.40
2019-01-29T14:40:06.607Z,14.60
2019-01-29T14:41:06.615Z,12.50
2019-01-29T14:42:06.606Z,12.80
2019-01-29T14:43:06.628Z,12.70
2019-01-29T14:44:06.617Z,11.70
2019-01-29T14:45:06.619Z,13.70
2019-01-29T14:46:06.622Z,14.90
2019-01-29T14:47:06.696Z,13.60
2019-01-29T14:48:06.629Z,12.80
2019-01-29T14:49:06.745Z,15.20
2019-01-29T14:50:06.638Z,17.90
2019-01-29T14:51:06.642Z,17.80
2019-01-29T14:52:06.650Z,11.10
2019-01-29T14:53:06.659Z,9.70
2019-01-29T14:54:06.690Z,14.50
2019-01-29T14:55:06.849Z,9.90
2019-01-29T14:56:06.684Z,10.40
2019-01-29T14:57:06.680Z,15.10
2019-01-29T14:58:06.695Z,14.90
2019-01-29T14:59:06.688Z,13.50
2019-01-29T15:00:06.699Z,10.30
2019-01-29T15:01:06.718Z,9.80
2019-01-29T15:02:06.754Z,11.50
2019-01-29T15:03:06.719Z,13.70
2019-01-29T15:04:06.714Z,14.30
2019-01-29T15:05:06.702Z,10.80
2019-01-29T15:06:06.705Z,11.60
2019-01-29T15:07:06.718Z,12.50
2019-01-29T15:08:06.708Z,9.50
2019-01-29T15:09:06.715Z,11.00
2019-01-29T15:10:06.720Z,13.50
2019-01-29T15:11:06.739Z,10.70
2019-01-29T15:12:06.724Z,16.30
2019-01-29T15:14:06.729Z,10.70
2019-01-29T15:15:06.746Z,13.00
2019-01-29T15:16:06.739Z,11.90
2019-01-29T15:17:06.745Z,10.70
2019-01-29T15:18:06.760Z,12.40
2019-01-29T15:19:06.748Z,11.50
2019-01-29T15:20:06.748Z,15.80
2019-01-29T15:22:06.763Z,14.00
2019-01-29T15:23:06.773Z,12.70
2019-01-29T15:24:06.760Z,10.30
2019-01-29T15:25:06.778Z,13.70
2019-01-29T15:26:06.773Z,17.80
2019-01-29T15:27:06.783Z,13.10
2019-01-29T15:28:06.781Z,15.70
2019-01-29T15:29:06.791Z,15.90
2019-01-29T15:30:06.783Z,18.60
2019-01-29T15:32:06.800Z,17.30
2019-01-29T15:33:06.795Z,17.60
2019-01-29T15:34:06.786Z,13.10
2019-01-29T15:35:06.796Z,15.40
2019-01-29T15:36:06.803Z,17.80
2019-01-29T15:37:06.815Z,16.60
2019-01-29T15:38:06.805Z,13.10
2019-01-29T15:39:06.811Z,16.40
2019-01-29T15:40:06.823Z,18.20
2019-01-29T15:41:06.816Z,17.50
2019-01-29T15:42:06.816Z,16.40
2019-01-29T15:43:06.840Z,18.70
2019-01-29T15:44:06.831Z,17.00
2019-01-29T15:45:06.831Z,14.80
2019-01-29T15:46:06.832Z,14.10
2019-01-29T15:47:06.840Z,15.00
2019-01-29T15:48:06.841Z,13.70
2019-01-29T15:49:06.843Z,12.70
2019-01-29T15:50:06.863Z,15.20
2019-01-29T15:51:06.842Z,11.40
2019-01-29T15:52:06.865Z,16.40
2019-01-29T15:53:06.853Z,13.20
2019-01-29T15:54:06.865Z,13.30
2019-01-29T15:55:06.868Z,12.50
2019-01-29T15:56:06.869Z,9.70
2019-01-29T15:57:14.084Z,15.50
2019-01-29T15:58:06.869Z,14.30
2019-01-29T15:59:06.875Z,12.90
2019-01-29T16:00:06.890Z,18.00
2019-01-29T16:01:06.890Z,16.50
2019-01-29T16:02:06.878Z,12.60
2019-01-29T16:03:06.911Z,19.00
2019-01-29T16:04:06.911Z,14.60
2019-01-29T16:05:06.903Z,15.00
2019-01-29T16:06:06.896Z,14.70
2019-01-29T16:07:06.908Z,16.90
2019-01-29T16:08:06.897Z,16.70
2019-01-29T16:09:06.908Z,13.40
2019-01-29T16:10:06.915Z,16.60
2019-01-29T16:11:06.922Z,14.70
2019-01-29T16:12:06.924Z,15.90
2019-01-29T16:13:06.918Z,15.10
2019-01-29T16:14:06.953Z,14.80
2019-01-29T16:15:06.923Z,17.00
2019-01-29T16:16:06.917Z,14.30
2019-01-29T16:17:06.942Z,18.20
2019-01-29T16:18:06.934Z,15.60
2019-01-29T16:19:06.941Z,13.90
2019-01-29T16:20:06.945Z,18.10
2019-01-29T16:21:06.938Z,14.40
2019-01-29T16:22:06.976Z,21.70
2019-01-29T16:23:07.011Z,15.80
2019-01-29T16:24:06.954Z,13.90
2019-01-29T16:25:06.948Z,15.00
2019-01-29T16:26:06.960Z,14.30
2019-01-29T16:27:07.266Z,19.30
2019-01-29T16:28:06.958Z,16.70
2019-01-29T16:29:06.968Z,16.60
2019-01-29T16:31:06.965Z,17.60
2019-01-29T16:32:06.954Z,17.00
2019-01-29T16:33:06.971Z,19.70
2019-01-29T16:34:06.972Z,16.50
2019-01-29T16:35:07.036Z,19.40
2019-01-29T16:36:06.976Z,16.70
2019-01-29T16:37:06.982Z,18.80
2019-01-29T16:38:06.990Z,18.00
2019-01-29T16:39:06.988Z,16.10
2019-01-29T16:40:07.005Z,16.50
2019-01-29T16:41:06.999Z,18.00
2019-01-29T16:42:06.991Z,16.10
2019-01-29T16:43:07.005Z,15.00
2019-01-29T16:44:06.985Z,17.30
2019-01-29T16:45:07.001Z,17.00
2019-01-29T16:46:07.007Z,15.30
2019-01-29T16:47:07.019Z,17.70
2019-01-29T16:48:07.015Z,15.90
2019-01-29T16:49:07.013Z,13.40
2019-01-29T16:50:07.005Z,19.90
2019-01-29T16:51:07.013Z,15.70
2019-01-29T16:52:07.034Z,18.70
2019-01-29T16:53:07.013Z,15.90
2019-01-29T16:54:07.017Z,15.40
2019-01-29T16:55:07.028Z,14.50
2019-01-29T16:56:07.047Z,16.10
2019-01-29T16:57:07.028Z,14.40
2019-01-29T16:58:07.020Z,14.90
2019-01-29T16:59:07.031Z,15.30
2019-01-29T17:00:07.031Z,16.80
2019-01-29T17:01:07.027Z,13.50
2019-01-29T17:02:07.028Z,12.70
2019-01-29T17:03:07.031Z,14.90
2019-01-29T17:04:07.034Z,15.00
2019-01-29T17:05:07.030Z,16.10
2019-01-29T17:06:07.061Z,13.40
2019-01-29T17:07:07.045Z,13.20
2019-01-29T17:08:07.046Z,18.80
2019-01-29T17:09:07.064Z,15.40
2019-01-29T17:10:07.050Z,15.10
2019-01-29T17:11:07.045Z,17.90
2019-01-29T17:12:07.060Z,13.10
2019-01-29T17:13:07.059Z,12.40
2019-01-29T17:14:07.057Z,16.10
2019-01-29T17:15:07.059Z,13.40
2019-01-29T17:16:07.056Z,13.10
2019-01-29T17:17:07.058Z,11.80
2019-01-29T17:18:07.099Z,16.40
2019-01-29T17:19:07.070Z,12.80
2019-01-29T17:20:07.070Z,15.20
2019-01-29T17:21:07.069Z,11.80
2019-01-29T17:22:07.070Z,14.60
2019-01-29T17:23:07.079Z,12.60
2019-01-29T17:24:07.072Z,12.70
2019-01-29T17:25:07.087Z,12.50
2019-01-29T17:26:07.077Z,13.30
2019-01-29T17:27:07.080Z,15.60
2019-01-29T17:28:07.089Z,16.40
2019-01-29T17:29:07.082Z,13.30
2019-01-29T17:30:07.152Z,13.50
2019-01-29T17:31:07.086Z,13.50
2019-01-29T17:32:07.091Z,13.20
2019-01-29T17:33:07.098Z,13.80
2019-01-29T17:34:07.092Z,12.70
2019-01-29T17:35:07.097Z,17.60
2019-01-29T17:36:07.097Z,11.60
2019-01-29T17:37:07.098Z,11.40
2019-01-29T17:38:07.106Z,15.90
2019-01-29T17:39:07.098Z,12.80
2019-01-29T17:40:07.102Z,13.50
2019-01-29T17:41:07.105Z,17.70
2019-01-29T17:42:07.103Z,16.30
2019-01-29T17:43:07.102Z,11.60
2019-01-29T17:44:07.104Z,12.00
2019-01-29T17:45:07.107Z,10.80
2019-01-29T17:46:07.104Z,11.40
2019-01-29T17:47:07.134Z,12.70
2019-01-29T17:48:07.120Z,15.10
2019-01-29T17:49:07.108Z,13.00
2019-01-29T17:50:07.128Z,13.70
2019-01-29T17:51:07.112Z,12.50
2019-01-29T17:52:07.120Z,13.40
2019-01-29T17:53:07.125Z,12.20
2019-01-29T17:54:07.150Z,10.20
2019-01-29T17:55:07.129Z,13.70
2019-01-29T17:56:07.128Z,13.30
2019-01-29T17:57:07.117Z,13.20
2019-01-29T17:58:07.126Z,14.00
2019-01-29T17:59:07.131Z,13.70
2019-01-29T18:00:07.145Z,13.60
2019-01-29T18:01:07.166Z,15.90
2019-01-29T18:02:07.130Z,12.70
2019-01-29T18:03:07.135Z,11.80
2019-01-29T18:04:07.132Z,11.90
2019-01-29T18:05:07.143Z,11.50
2019-01-29T18:06:07.134Z,13.40
2019-01-29T18:07:07.138Z,13.00
2019-01-29T18:08:07.184Z,13.30
2019-01-29T18:09:07.148Z,14.00
2019-01-29T18:10:07.134Z,13.90
2019-01-29T18:11:07.138Z,12.10
2019-01-29T18:12:07.139Z,14.60
2019-01-29T18:13:07.140Z,12.90
2019-01-29T18:14:07.145Z,12.10
2019-01-29T18:15:07.147Z,12.20
2019-01-29T18:16:07.235Z,14.70
2019-01-29T18:17:07.140Z,12.40
2019-01-29T18:18:07.164Z,12.60
2019-01-29T18:19:07.138Z,13.00
2019-01-29T18:20:07.140Z,14.60
2019-01-29T18:21:07.159Z,12.80
2019-01-29T18:22:07.264Z,12.60
2019-01-29T18:23:07.153Z,12.80
2019-01-29T18:24:07.152Z,11.60
2019-01-29T18:25:07.169Z,13.20
2019-01-29T18:26:07.156Z,13.70
2019-01-29T18:27:07.145Z,14.20
2019-01-29T18:28:08.627Z,11.90
2019-01-29T18:29:07.451Z,11.70
2019-01-29T18:30:07.163Z,11.50
2019-01-29T18:31:07.177Z,12.50
2019-01-29T18:32:07.191Z,9.60
2019-01-29T18:33:07.166Z,12.90
2019-01-29T18:34:07.177Z,14.90
2019-01-29T18:35:07.155Z,15.90
2019-01-29T18:36:07.163Z,13.90
2019-01-29T18:37:07.162Z,15.00
2019-01-29T18:38:07.170Z,11.60
2019-01-29T18:39:07.178Z,11.90
2019-01-29T18:40:07.169Z,12.80
2019-01-29T18:41:07.173Z,12.60
2019-01-29T18:42:07.170Z,12.90
2019-01-29T18:43:07.185Z,12.10
2019-01-29T18:44:07.166Z,13.40
2019-01-29T18:45:07.188Z,11.60
2019-01-29T18:46:07.172Z,15.60
2019-01-29T18:47:07.162Z,13.40
2019-01-29T18:48:07.175Z,13.40
2019-01-29T18:49:07.179Z,13.90
2019-01-29T18:50:07.169Z,12.80
2019-01-29T18:51:07.175Z,14.10
2019-01-29T18:52:07.179Z,16.60
2019-01-29T18:53:07.185Z,12.90
2019-01-29T18:54:07.190Z,16.10
2019-01-29T18:55:07.182Z,13.30
2019-01-29T18:56:07.175Z,14.40
2019-01-29T18:57:07.195Z,14.80
2019-01-29T18:58:11.933Z,14.20
2019-01-29T18:59:07.184Z,13.40
2019-01-29T19:00:07.180Z,15.70
2019-01-29T19:01:07.190Z,13.80
2019-01-29T19:02:07.181Z,13.40
2019-01-29T19:03:07.177Z,11.90
2019-01-29T19:04:07.193Z,12.90
2019-01-29T19:05:07.192Z,11.30
2019-01-29T19:06:07.201Z,15.30
2019-01-29T19:07:07.187Z,15.30
2019-01-29T19:08:07.190Z,12.60
2019-01-29T19:09:07.191Z,16.50
2019-01-29T19:10:07.223Z,16.60
2019-01-29T19:11:07.836Z,14.40
2019-01-29T19:12:07.197Z,13.10
2019-01-29T19:13:07.201Z,12.60
2019-01-29T19:14:07.198Z,11.60
2019-01-29T19:15:07.191Z,12.20
2019-01-29T19:16:07.196Z,15.80
2019-01-29T19:17:07.194Z,16.00
2019-01-29T19:18:07.204Z,13.00
2019-01-29T19:19:07.195Z,12.40
2019-01-29T19:20:07.206Z,12.50
2019-01-29T19:21:07.201Z,12.40
2019-01-29T19:22:07.201Z,13.10
2019-01-29T19:23:07.211Z,11.90
2019-01-29T19:24:07.201Z,11.90
2019-01-29T19:25:07.203Z,12.50
2019-01-29T19:26:07.217Z,14.10
2019-01-29T19:28:07.217Z,13.10
2019-01-29T19:29:07.210Z,14.70
2019-01-29T19:30:07.203Z,14.80
2019-01-29T19:31:07.200Z,12.60
2019-01-29T19:32:07.219Z,13.60
2019-01-29T19:33:07.206Z,11.90
2019-01-29T19:34:07.257Z,12.50
2019-01-29T19:35:07.207Z,13.80
2019-01-29T19:36:07.207Z,14.90
2019-01-29T19:37:07.215Z,14.90
2019-01-29T19:38:07.220Z,14.10
2019-01-29T19:39:07.208Z,15.70
2019-01-29T19:40:07.220Z,14.70
2019-01-29T19:41:07.221Z,16.30
2019-01-29T19:42:07.216Z,15.00
2019-01-29T19:43:07.207Z,13.50
2019-01-29T19:44:07.278Z,13.20
2019-01-29T19:45:07.219Z,13.20
2019-01-29T19:46:07.213Z,12.40
2019-01-29T19:47:07.229Z,12.80
2019-01-29T19:48:07.210Z,14.60
2019-01-29T19:49:07.222Z,16.50
2019-01-29T19:50:07.225Z,12.80
2019-01-29T19:51:07.258Z,11.10
2019-01-29T19:52:07.320Z,12.20
2019-01-29T19:53:07.226Z,14.10
2019-01-29T19:54:07.230Z,10.60
2019-01-29T19:55:07.233Z,12.70
2019-01-29T19:56:07.239Z,17.10
2019-01-29T19:57:07.226Z,12.00
2019-01-29T19:58:09.043Z,14.60
2019-01-29T19:59:07.598Z,14.60
2019-01-29T20:00:07.233Z,15.20
2019-01-29T20:01:07.229Z,13.40
2019-01-29T20:02:07.241Z,15.80
2019-01-29T20:03:07.223Z,12.40
2019-01-29T20:04:07.236Z,14.40
2019-01-29T20:05:07.232Z,15.70
2019-01-29T20:06:07.231Z,13.40
2019-01-29T20:07:07.237Z,12.00
2019-01-29T20:08:07.239Z,12.10
2019-01-29T20:09:07.251Z,14.20
2019-01-29T20:10:07.239Z,11.50
2019-01-29T20:11:07.232Z,13.80
2019-01-29T20:12:09.662Z,13.20
2019-01-29T20:13:07.252Z,11.70
2019-01-29T20:14:07.242Z,13.60
2019-01-29T20:15:07.243Z,18.30
2019-01-29T20:16:07.255Z,12.20
2019-01-29T20:17:07.249Z,10.70
2019-01-29T20:18:07.248Z,12.60
2019-01-29T20:19:07.256Z,11.10
2019-01-29T20:20:07.255Z,13.30
2019-01-29T20:21:07.251Z,16.80
2019-01-29T20:22:07.249Z,13.00
2019-01-29T20:23:08.389Z,12.20
2019-01-29T20:24:07.267Z,14.20
2019-01-29T20:25:07.258Z,12.70
2019-01-29T20:26:07.268Z,13.20
2019-01-29T20:27:07.263Z,11.10
2019-01-29T20:28:07.281Z,12.50
2019-01-29T20:29:07.264Z,12.50
2019-01-29T20:30:07.270Z,14.20
2019-01-29T20:31:07.259Z,12.30
2019-01-29T20:32:07.256Z,15.40
2019-01-29T20:33:07.259Z,12.90
2019-01-29T20:34:07.281Z,13.10
2019-01-29T20:35:07.257Z,13.10
2019-01-29T20:36:07.259Z,17.10
2019-01-29T20:37:07.271Z,15.10
2019-01-29T20:38:07.258Z,12.50
2019-01-29T20:39:07.297Z,12.80
2019-01-29T20:40:07.259Z,15.90
2019-01-29T20:41:07.268Z,13.80
2019-01-29T20:42:07.268Z,12.90
2019-01-29T20:43:07.293Z,17.40
2019-01-29T20:44:07.281Z,11.90
2019-01-29T20:45:07.288Z,14.80
2019-01-29T20:46:07.274Z,11.60
2019-01-29T20:47:07.275Z,15.20
2019-01-29T20:48:07.274Z,16.80
2019-01-29T20:49:07.269Z,12.50
2019-01-29T20:50:07.284Z,14.90
2019-01-29T20:51:07.300Z,13.70
2019-01-29T20:52:07.278Z,10.50
2019-01-29T20:53:07.291Z,14.20
2019-01-29T20:54:07.272Z,10.90
2019-01-29T20:55:07.287Z,14.40
2019-01-29T20:56:07.288Z,12.90
2019-01-29T20:57:07.283Z,11.30
2019-01-29T20:58:07.278Z,14.00
2019-01-29T20:59:07.281Z,11.60
2019-01-29T21:00:07.301Z,12.70
2019-01-29T21:01:07.306Z,12.70
2019-01-29T21:02:07.283Z,15.50
2019-01-29T21:03:07.299Z,13.00
2019-01-29T21:04:07.284Z,11.80
2019-01-29T21:05:07.288Z,10.60
2019-01-29T21:06:07.294Z,16.10
2019-01-29T21:07:07.294Z,13.30
2019-01-29T21:08:07.293Z,13.90
2019-01-29T21:09:07.333Z,13.40
2019-01-29T21:10:07.285Z,12.10
2019-01-29T21:11:07.310Z,12.80
2019-01-29T21:12:07.307Z,10.20
2019-01-29T21:13:07.299Z,8.90
2019-01-29T21:14:07.299Z,9.80
2019-01-29T21:15:07.298Z,12.80
2019-01-29T21:16:07.302Z,10.70
2019-01-29T21:17:07.299Z,12.10
2019-01-29T21:18:07.301Z,13.30
2019-01-29T21:19:07.294Z,12.80
2019-01-29T21:20:07.296Z,13.80
2019-01-29T21:21:07.302Z,13.00
2019-01-29T21:22:07.319Z,11.70
2019-01-29T21:23:07.345Z,12.10
2019-01-29T21:24:07.303Z,11.10
2019-01-29T21:25:07.305Z,10.70
2019-01-29T21:26:07.316Z,10.90
2019-01-29T21:27:07.294Z,12.50
2019-01-29T21:28:07.305Z,12.70
2019-01-29T21:29:07.301Z,11.40
2019-01-29T21:30:07.319Z,12.00
2019-01-29T21:31:07.328Z,12.90
2019-01-29T21:32:07.306Z,12.60
2019-01-29T21:33:07.307Z,10.50
2019-01-29T21:34:07.314Z,10.40
2019-01-29T21:35:07.330Z,13.30
2019-01-29T21:36:07.310Z,10.10
2019-01-29T21:37:07.315Z,12.00
2019-01-29T21:38:07.310Z,12.40
2019-01-29T21:39:07.317Z,12.00
2019-01-29T21:40:07.341Z,10.40
2019-01-29T21:41:07.341Z,8.00
2019-01-29T21:42:07.316Z,8.90
2019-01-29T21:43:07.323Z,11.40
2019-01-29T21:44:07.320Z,11.70
2019-01-29T21:45:07.329Z,12.50
2019-01-29T21:46:07.317Z,8.30
2019-01-29T21:47:07.319Z,9.40
2019-01-29T21:48:07.319Z,9.70
2019-01-29T21:49:07.321Z,8.40
2019-01-29T21:50:11.567Z,11.10
2019-01-29T21:51:07.344Z,11.20
2019-01-29T21:52:07.333Z,12.60
2019-01-29T21:53:07.319Z,12.40
2019-01-29T21:54:07.332Z,9.60
2019-01-29T21:55:07.320Z,7.30
2019-01-29T21:56:07.329Z,9.20
2019-01-29T21:57:07.344Z,11.10
2019-01-29T21:58:07.329Z,7.80
2019-01-29T21:59:13.132Z,8.50
2019-01-29T22:00:07.344Z,12.40
2019-01-29T22:01:07.325Z,17.50
2019-01-29T22:02:07.338Z,11.50
2019-01-29T22:03:07.335Z,10.70
2019-01-29T22:04:07.327Z,9.10
2019-01-29T22:05:07.334Z,7.50
2019-01-29T22:06:07.351Z,10.30
2019-01-29T22:07:07.326Z,9.20
2019-01-29T22:08:07.333Z,10.40
2019-01-29T22:09:07.331Z,7.60
2019-01-29T22:10:07.343Z,10.10
2019-01-29T22:11:07.344Z,7.90
2019-01-29T22:12:07.345Z,10.00
2019-01-29T22:13:07.352Z,8.30
2019-01-29T22:14:07.358Z,6.40
2019-01-29T22:15:07.344Z,9.80
2019-01-29T22:16:07.332Z,11.40
2019-01-29T22:17:07.346Z,8.10
2019-01-29T22:19:07.342Z,10.20
2019-01-29T22:20:07.345Z,7.20
2019-01-29T22:21:07.350Z,7.10
2019-01-29T22:22:07.416Z,7.70
2019-01-29T22:23:07.340Z,8.60
2019-01-29T22:24:07.342Z,8.30
2019-01-29T22:25:07.333Z,6.80
2019-01-29T22:26:07.361Z,8.30
2019-01-29T22:27:07.351Z,6.50
2019-01-29T22:28:07.362Z,7.30
2019-01-29T22:29:07.353Z,7.90
2019-01-29T22:30:07.352Z,6.10
2019-01-29T22:31:07.342Z,7.60
2019-01-29T22:32:07.345Z,5.50
2019-01-29T22:33:07.349Z,8.60
2019-01-29T22:34:07.341Z,7.60
2019-01-29T22:35:07.339Z,6.60
2019-01-29T22:36:07.346Z,6.20
2019-01-29T22:37:07.342Z,9.20
2019-01-29T22:38:07.359Z,7.50
2019-01-29T22:39:07.346Z,7.40
2019-01-29T22:40:07.336Z,7.50
2019-01-29T22:41:07.351Z,8.60
2019-01-29T22:42:07.348Z,9.80
2019-01-29T22:43:07.359Z,6.50
2019-01-29T22:44:07.349Z,8.50
2019-01-29T22:45:07.363Z,9.00
2019-01-29T22:46:07.363Z,7.30
2019-01-29T22:47:07.355Z,7.00
2019-01-29T22:48:07.351Z,9.80
2019-01-29T22:49:07.358Z,12.10
2019-01-29T22:50:07.348Z,7.50
2019-01-29T22:51:07.360Z,7.90
2019-01-29T22:52:07.349Z,8.30
2019-01-29T22:53:07.354Z,7.50
2019-01-29T22:54:07.344Z,9.30
2019-01-29T22:55:07.354Z,8.30
2019-01-29T22:56:07.346Z,9.10
2019-01-29T22:57:07.359Z,7.30
2019-01-29T22:58:07.365Z,7.10
2019-01-29T22:59:07.361Z,10.70
2019-01-29T23:00:07.359Z,7.60
2019-01-29T23:01:07.361Z,7.20
2019-01-29T23:02:07.355Z,8.20
2019-01-29T23:03:07.357Z,7.00
2019-01-29T23:04:07.364Z,7.20
2019-01-29T23:05:07.362Z,7.80
2019-01-29T23:06:07.360Z,7.30
2019-01-29T23:07:07.360Z,8.50
2019-01-29T23:08:07.371Z,11.10
2019-01-29T23:09:07.349Z,8.30
2019-01-29T23:10:07.354Z,8.00
2019-01-29T23:11:07.361Z,8.70
2019-01-29T23:12:07.361Z,7.60
2019-01-29T23:13:07.374Z,8.90
2019-01-29T23:14:07.361Z,8.40
2019-01-29T23:15:07.413Z,8.60
2019-01-29T23:16:07.362Z,6.80
2019-01-29T23:17:07.373Z,8.80
2019-01-29T23:18:07.352Z,9.20
2019-01-29T23:19:07.370Z,7.20
2019-01-29T23:20:07.359Z,7.70
2019-01-29T23:21:07.363Z,7.30
2019-01-29T23:22:07.354Z,8.30
2019-01-29T23:23:07.365Z,7.20
2019-01-29T23:24:07.365Z,8.90
2019-01-29T23:25:07.361Z,8.50
2019-01-29T23:26:07.352Z,9.90
2019-01-29T23:27:07.365Z,10.10
2019-01-29T23:28:07.361Z,9.70
2019-01-29T23:29:07.358Z,7.90
2019-01-29T23:30:07.372Z,12.20
2019-01-29T23:31:07.366Z,9.40
2019-01-29T23:32:07.353Z,13.40
2019-01-29T23:33:07.355Z,11.60
2019-01-29T23:34:07.365Z,10.50
2019-01-29T23:35:07.387Z,13.40
2019-01-29T23:36:07.354Z,12.70
2019-01-29T23:37:07.362Z,9.50
2019-01-29T23:38:07.368Z,9.70
2019-01-29T23:39:07.372Z,12.70
2019-01-29T23:40:07.363Z,11.90
2019-01-29T23:41:07.372Z,14.10
2019-01-29T23:42:07.354Z,9.80
2019-01-29T23:43:07.357Z,9.40
2019-01-29T23:44:07.360Z,9.30
2019-01-29T23:45:07.365Z,9.90
2019-01-29T23:46:07.365Z,11.30
2019-01-29T23:47:07.491Z,10.20
2019-01-29T23:48:07.370Z,12.10
2019-01-29T23:49:07.363Z,12.20
2019-01-29T23:50:07.395Z,11.00
2019-01-29T23:51:07.370Z,9.90
2019-01-29T23:52:07.363Z,13.30
2019-01-29T23:53:07.366Z,11.70
2019-01-29T23:54:07.358Z,9.90
2019-01-29T23:55:07.365Z,10.20
2019-01-29T23:56:07.359Z,12.80
2019-01-29T23:57:07.359Z,10.90
2019-01-29T23:58:07.362Z,13.50
2019-01-29T23:59:07.370Z,12.30
